Willoughby, Ohio
Current Conditions -  °F | °C
As of 7:45 PM on Saturday 25 Oct 2014 (Local Time) from KCGF Reporting Station
Clear Clear  
Wind Chill: 64°   Ceiling: Unl
Heat Index: 64°   Visibility: 7mi
Dew Point: 50°   Wind: 16mph
Humidity: 59%   Direction: 260°W
Pressure: 29.76"   Gusts: NA
Location:  41.64°N, 81.41°W
Report Text: KCGF 252345Z 26014KT 7SM SKC 18/10 A2976
Loading
Personal Weather Stations






























Interactive Weather Map
Tropical Storm Tracking
New forecast layout! Learn more

10-Day Weather Forecast

Advertisements
Track Severe Weather on mobile